createdAt,value
2023-03-08T00:00:00.119Z,982.26
2023-03-08T00:05:00.271Z,982.23
2023-03-08T00:10:00.156Z,982.32
2023-03-08T00:15:00.133Z,982.32
2023-03-08T00:20:00.125Z,982.27
2023-03-08T00:25:00.122Z,982.4
2023-03-08T00:30:00.224Z,982.48
2023-03-08T00:35:00.134Z,982.48
2023-03-08T00:40:00.115Z,982.55
2023-03-08T00:45:00.145Z,982.7
2023-03-08T00:50:00.116Z,982.6
2023-03-08T00:55:00.116Z,982.58
2023-03-08T01:00:00.183Z,982.52
2023-03-08T01:05:00.174Z,982.62
2023-03-08T01:10:00.139Z,982.62
2023-03-08T01:15:00.117Z,982.68
2023-03-08T01:20:00.117Z,982.59
2023-03-08T01:25:00.298Z,982.72
2023-03-08T01:30:00.149Z,982.71
2023-03-08T01:35:00.106Z,982.72
2023-03-08T01:40:00.128Z,982.72
2023-03-08T01:45:00.116Z,982.69
2023-03-08T01:50:00.104Z,982.73
2023-03-08T01:55:00.114Z,982.74
2023-03-08T02:00:00.149Z,982.52
2023-03-08T02:10:00.719Z,982.63
2023-03-08T02:15:00.149Z,982.51
2023-03-08T02:20:00.122Z,982.6
2023-03-08T02:25:00.127Z,982.48
2023-03-08T02:30:00.147Z,982.55
2023-03-08T02:35:00.135Z,982.61
2023-03-08T02:40:00.132Z,982.75
2023-03-08T02:45:00.131Z,982.57
2023-03-08T02:50:00.149Z,982.67
2023-03-08T02:55:00.141Z,982.61
2023-03-08T03:00:00.134Z,982.52
2023-03-08T03:05:00.117Z,982.55
2023-03-08T03:10:00.238Z,982.39
2023-03-08T03:15:00.117Z,982.48
2023-03-08T03:20:00.134Z,982.45
2023-03-08T03:25:00.136Z,982.68
2023-03-08T03:30:00.145Z,982.75
2023-03-08T03:35:00.129Z,982.79
2023-03-08T03:40:00.111Z,982.74
2023-03-08T03:45:00.132Z,982.78
2023-03-08T03:50:00.145Z,982.74
2023-03-08T03:55:00.147Z,982.84
2023-03-08T04:00:00.153Z,982.87
2023-03-08T04:05:00.096Z,982.91
2023-03-08T04:10:00.189Z,982.78
2023-03-08T04:15:00.142Z,982.75
2023-03-08T04:20:00.133Z,982.9
2023-03-08T04:25:00.097Z,982.98
2023-03-08T04:30:00.208Z,982.29
2023-03-08T04:35:00.150Z,982.18
2023-03-08T04:40:00.128Z,982.19
2023-03-08T04:45:00.145Z,982.16
2023-03-08T04:50:00.217Z,982.14
2023-03-08T04:55:00.112Z,982.01
2023-03-08T05:00:00.151Z,982.07
2023-03-08T05:05:00.193Z,982.22
2023-03-08T05:10:00.172Z,982.18
2023-03-08T05:15:00.115Z,982.19
2023-03-08T05:20:00.132Z,982.12
2023-03-08T05:25:00.674Z,982.19
2023-03-08T05:30:00.150Z,982.29
2023-03-08T05:35:00.123Z,982.17
2023-03-08T05:40:00.094Z,982.09
2023-03-08T05:45:00.156Z,982.01
2023-03-08T05:50:00.144Z,981.94
2023-03-08T05:55:00.102Z,982.05
2023-03-08T06:00:00.119Z,982.11
2023-03-08T06:05:00.195Z,982.14
2023-03-08T06:10:00.180Z,982.03
2023-03-08T06:15:00.104Z,982.17
2023-03-08T06:20:00.097Z,982.07
2023-03-08T06:25:00.122Z,982.03
2023-03-08T06:30:00.135Z,982.1
2023-03-08T06:35:00.096Z,982.16
2023-03-08T06:40:00.148Z,982.23
2023-03-08T06:45:00.123Z,982.14
2023-03-08T06:50:00.141Z,982.22
2023-03-08T06:55:00.127Z,982.23
2023-03-08T07:00:00.188Z,982.09
2023-03-08T07:05:00.100Z,982.25
2023-03-08T07:10:00.170Z,982.23
2023-03-08T07:15:00.126Z,982.18
2023-03-08T07:20:00.122Z,982.06
2023-03-08T07:25:00.130Z,982.14
2023-03-08T07:30:00.167Z,982.06
2023-03-08T07:35:00.107Z,982.12
2023-03-08T07:40:00.138Z,981.99
2023-03-08T07:45:00.099Z,982.03
2023-03-08T07:50:00.135Z,982.01
2023-03-08T07:55:00.157Z,981.89
2023-03-08T08:00:00.130Z,981.92
2023-03-08T08:05:00.192Z,981.99
2023-03-08T08:10:00.132Z,981.92
2023-03-08T08:15:00.163Z,981.95
2023-03-08T08:20:00.115Z,982.07
2023-03-08T08:25:00.147Z,981.91
2023-03-08T08:30:00.170Z,981.89
2023-03-08T08:35:00.452Z,981.87
2023-03-08T08:40:00.156Z,981.86
2023-03-08T08:45:00.160Z,981.78
2023-03-08T08:50:00.165Z,981.66
2023-03-08T08:55:00.104Z,981.52
2023-03-08T09:00:00.178Z,981.43
2023-03-08T09:05:00.220Z,981.37
2023-03-08T09:10:00.135Z,981.23
2023-03-08T09:15:00.122Z,981.21
2023-03-08T09:20:00.199Z,981.11
2023-03-08T09:25:00.124Z,981.1
2023-03-08T09:30:00.311Z,981.1
2023-03-08T09:35:00.199Z,981.11
2023-03-08T09:40:00.143Z,981.08
2023-03-08T09:45:00.153Z,981.06
2023-03-08T09:50:00.138Z,980.96
2023-03-08T09:55:00.186Z,980.95
2023-03-08T10:00:00.150Z,981.02
2023-03-08T10:05:12.110Z,980.85
2023-03-08T10:10:00.218Z,980.8
2023-03-08T10:15:00.120Z,980.7
2023-03-08T10:20:00.148Z,980.5
2023-03-08T10:25:00.109Z,980.54
2023-03-08T10:30:00.187Z,980.48
2023-03-08T10:35:00.156Z,980.36
2023-03-08T10:40:00.128Z,980.31
2023-03-08T10:45:00.128Z,980.23
2023-03-08T10:50:00.309Z,980.05
2023-03-08T10:55:00.118Z,980.01
2023-03-08T11:00:00.153Z,979.86
2023-03-08T11:05:00.253Z,979.7
2023-03-08T11:10:00.151Z,979.55
2023-03-08T11:15:00.262Z,979.47
2023-03-08T11:20:00.296Z,979.3
2023-03-08T11:25:00.178Z,979.31
2023-03-08T11:30:00.305Z,979.13
2023-03-08T11:35:00.158Z,979
2023-03-08T11:40:00.157Z,978.96
2023-03-08T11:45:00.141Z,978.86
2023-03-08T11:50:00.129Z,978.73
2023-03-08T11:55:00.222Z,978.65
2023-03-08T12:00:00.215Z,978.64
2023-03-08T12:05:00.236Z,978.5
2023-03-08T12:10:00.316Z,978.51
2023-03-08T12:15:00.279Z,978.59
2023-03-08T12:20:00.127Z,978.63
2023-03-08T12:25:00.163Z,978.4
2023-03-08T12:30:00.197Z,978.44
2023-03-08T12:35:00.163Z,978.44
2023-03-08T12:40:00.163Z,978.36
2023-03-08T12:45:00.131Z,978.39
2023-03-08T12:50:00.375Z,978.32
2023-03-08T12:55:00.156Z,978.25
2023-03-08T13:00:00.161Z,978.26
2023-03-08T13:05:00.224Z,978.28
2023-03-08T13:10:00.153Z,978.12
2023-03-08T13:15:00.110Z,978.14
2023-03-08T13:20:00.222Z,978.13
2023-03-08T13:25:00.181Z,978.18
2023-03-08T13:30:00.251Z,978.07
2023-03-08T13:35:00.186Z,978.18
2023-03-08T13:40:00.130Z,978.08
2023-03-08T13:45:00.125Z,978
2023-03-08T13:50:00.205Z,978.06
2023-03-08T13:55:00.234Z,978.12
2023-03-08T14:00:00.227Z,978.04
2023-03-08T14:05:00.280Z,977.94
2023-03-08T14:10:00.154Z,977.99
2023-03-08T14:15:00.248Z,977.79
2023-03-08T14:20:00.260Z,977.57
2023-03-08T14:25:00.205Z,977.54
2023-03-08T14:30:00.191Z,977.61
2023-03-08T14:35:00.162Z,977.59
2023-03-08T14:40:00.122Z,977.35
2023-03-08T14:45:00.139Z,977.22
2023-03-08T14:50:00.208Z,977.17
2023-03-08T14:55:00.133Z,977.24
2023-03-08T15:00:00.181Z,977.06
2023-03-08T15:05:00.147Z,977.05
2023-03-08T15:10:00.162Z,976.93
2023-03-08T15:15:00.121Z,976.74
2023-03-08T15:20:00.185Z,976.67
2023-03-08T15:25:00.124Z,976.68
2023-03-08T15:30:00.141Z,976.6
2023-03-08T15:35:00.119Z,976.67
2023-03-08T15:40:00.163Z,976.71
2023-03-08T15:45:00.107Z,976.59
2023-03-08T15:50:00.168Z,976.64
2023-03-08T15:55:00.117Z,976.58
2023-03-08T16:00:00.149Z,976.59
2023-03-08T16:05:00.188Z,976.42
2023-03-08T16:10:00.147Z,976.47
2023-03-08T16:15:00.162Z,976.42
2023-03-08T16:20:00.135Z,976.43
2023-03-08T16:25:00.157Z,976.49
2023-03-08T16:30:00.162Z,976.35
2023-03-08T16:35:00.142Z,976.32
2023-03-08T16:40:00.138Z,976.23
2023-03-08T16:45:00.150Z,976.25
2023-03-08T16:50:00.178Z,976.24
2023-03-08T16:55:00.158Z,976.25
2023-03-08T17:00:00.176Z,975.95
2023-03-08T17:05:00.151Z,975.94
2023-03-08T17:10:00.178Z,975.93
2023-03-08T17:15:00.154Z,976.1
2023-03-08T17:20:00.134Z,976.23
2023-03-08T17:25:00.153Z,976.25
2023-03-08T17:30:00.224Z,976.3
2023-03-08T17:35:00.125Z,976.29
2023-03-08T17:40:00.198Z,976.21
2023-03-08T17:45:00.129Z,976.01
2023-03-08T17:50:00.285Z,976.03
2023-03-08T17:55:00.103Z,976.19
2023-03-08T18:00:00.254Z,976.23
2023-03-08T18:05:00.158Z,976.16
2023-03-08T18:10:00.156Z,976.21
2023-03-08T18:15:00.125Z,976.21
2023-03-08T18:20:00.132Z,976.19
2023-03-08T18:25:00.124Z,976.15
2023-03-08T18:30:00.157Z,976.26
2023-03-08T18:35:00.140Z,976.16
2023-03-08T18:40:00.115Z,976.15
2023-03-08T18:45:00.123Z,976.17
2023-03-08T18:50:00.144Z,976.16
2023-03-08T18:55:00.137Z,976.2
2023-03-08T19:00:00.152Z,976.25
2023-03-08T19:05:00.120Z,976.19
2023-03-08T19:10:00.243Z,976.17
2023-03-08T19:15:00.150Z,976.23
2023-03-08T19:20:00.108Z,976.13
2023-03-08T19:25:00.128Z,976.05
2023-03-08T19:30:00.181Z,976.09
2023-03-08T19:35:00.141Z,976.05
2023-03-08T19:40:01.345Z,975.95
2023-03-08T19:45:00.109Z,975.95
2023-03-08T19:50:00.136Z,975.95
2023-03-08T19:55:00.125Z,975.97
2023-03-08T20:00:00.156Z,976.12
2023-03-08T20:05:00.138Z,976.04
2023-03-08T20:10:10.464Z,976.02
2023-03-08T20:15:00.160Z,976.04
2023-03-08T20:20:00.178Z,976.06
2023-03-08T20:25:00.136Z,976.18
2023-03-08T20:30:00.194Z,976.18
2023-03-08T20:35:00.107Z,976.21
2023-03-08T20:40:00.162Z,976.18
2023-03-08T20:45:00.159Z,976.21
2023-03-08T20:50:00.153Z,976.21
2023-03-08T20:55:00.125Z,976.04
2023-03-08T21:00:00.229Z,975.91
2023-03-08T21:05:00.109Z,975.81
2023-03-08T21:10:00.175Z,976
2023-03-08T21:15:00.166Z,975.99
2023-03-08T21:20:00.150Z,975.88
2023-03-08T21:25:00.149Z,976.32
2023-03-08T21:30:00.162Z,976.43
2023-03-08T21:35:00.114Z,976.38
2023-03-08T21:40:00.129Z,976.47
2023-03-08T21:45:00.114Z,976.58
2023-03-08T21:50:00.164Z,976.53
2023-03-08T21:55:00.170Z,976.28
2023-03-08T22:00:00.134Z,976.27
2023-03-08T22:05:00.098Z,976.24
2023-03-08T22:10:00.140Z,976.34
2023-03-08T22:15:00.126Z,976.13
2023-03-08T22:20:00.108Z,975.99
2023-03-08T22:25:00.142Z,976.04
2023-03-08T22:30:00.205Z,976.05
2023-03-08T22:35:00.101Z,976.12
2023-03-08T22:40:00.095Z,976.02
2023-03-08T22:45:00.128Z,976.13
2023-03-08T22:50:00.164Z,976.07
2023-03-08T22:55:00.102Z,976.08
2023-03-08T23:00:00.162Z,976.12
2023-03-08T23:05:00.126Z,975.86
2023-03-08T23:10:00.149Z,976.08
2023-03-08T23:15:00.140Z,976.07
2023-03-08T23:20:00.114Z,975.83
2023-03-08T23:25:00.129Z,975.73
2023-03-08T23:30:00.181Z,975.7
2023-03-08T23:35:00.123Z,975.71
2023-03-08T23:40:00.137Z,975.57
2023-03-08T23:45:00.141Z,975.53
2023-03-08T23:50:00.125Z,975.44
2023-03-08T23:55:00.191Z,975.5
